»·PEaware :: N13C KWHP-KCRQ

N13C :: KWHP-KCRQ

FLIGHT INFORMATION

Flight Status: Arrived
Operator: Privately registered:
United States
More flights under this callsign
Pilot: Alec D. (17934)
Aircraft: BEECH AIRCRAFT BONANZA
(BE35)
More flights by this aircraft type
Origin: KWHP Whiteman
United States
Destination: KCRQ McClellan-Palomar
United States
More flights between these airports :: More routes between these airports
Route: +WHP1 VNY V186 ROBNN V458 OCN
File this flight plan on PilotEdge
Remarks:
Altitude:
(Current/Filed)
7,000ft
Speed:
(Current/Filed)
160kts
Departed: 11-May-20 09:30 AM
Arrived: 11-May-20 10:25 AM
Distance/Time
Traveled:
88nm/0:54
Distance/Time
To Go:
Arrived

Flight Plot

Page will automatically refresh every two minutes.

Flight plan parsing failed; only flown route is shown


Map Options




Map Legend


Flown Route
Filed Route
Departure Airport
Arrival Airport
Navaid (VOR, NDB)
Fix

Horizontal Profiles

Position Reports

Time Latitude Longitude Heading Altitude Ground
Speed
11-May-20 09:06 34.260129 -118.412004 139 1006ft 0kts
11-May-20 09:07 34.260129 -118.412004 139 1006ft 0kts
11-May-20 09:08 34.260129 -118.412004 139 1006ft 0kts
11-May-20 09:09 34.260128 -118.412002 139 1006ft 0kts
11-May-20 09:12 34.260129 -118.412004 139 1006ft 0kts
11-May-20 09:13 34.260129 -118.412004 139 1006ft 0kts
11-May-20 09:14 34.260109 -118.411983 139 1006ft 0kts
11-May-20 09:15 34.260104 -118.411978 139 1006ft 0kts
11-May-20 09:16 34.260100 -118.411974 139 1006ft 0kts
11-May-20 09:17 34.260097 -118.411970 139 1006ft 0kts
11-May-20 09:18 34.260093 -118.411966 139 1006ft 0kts
11-May-20 09:19 34.260089 -118.411962 139 1006ft 0kts
11-May-20 09:21 34.260085 -118.411958 139 1006ft 0kts
11-May-20 09:22 34.260081 -118.411954 139 1006ft 0kts
11-May-20 09:23 34.260077 -118.411950 139 1006ft 0kts
11-May-20 09:24 34.258798 -118.411783 176 1006ft 12kts
11-May-20 09:25 34.255775 -118.408801 138 1006ft 14kts
11-May-20 09:26 34.255420 -118.408727 221 1006ft 0kts
11-May-20 09:27 34.255414 -118.408734 221 1006ft 0kts
11-May-20 09:28 34.255410 -118.408738 221 1006ft 0kts
11-May-20 09:29 34.255406 -118.408742 221 1006ft 0kts
11-May-20 09:30 34.257169 -118.411205 318 1006ft 53kts
11-May-20 09:31 34.273574 -118.433643 273 1726ft 103kts
11-May-20 09:32 34.275105 -118.468351 275 2728ft 102kts
11-May-20 09:33 34.276863 -118.502962 272 3658ft 104kts
11-May-20 09:34 34.296848 -118.523818 338 4549ft 109kts
11-May-20 09:35 34.294571 -118.544898 176 5438ft 107kts
11-May-20 09:36 34.267969 -118.525627 151 6211ft 114kts
11-May-20 09:37 34.240646 -118.504859 151 6932ft 120kts
11-May-20 09:38 34.216648 -118.469481 110 7001ft 157kts
11-May-20 09:38 34.203955 -118.427283 111 7002ft 162kts
11-May-20 09:40 34.185697 -118.367020 111 7009ft 164kts
11-May-20 09:41 34.169885 -118.314991 111 7002ft 165kts
11-May-20 09:42 34.153952 -118.262656 111 7000ft 165kts
11-May-20 09:43 34.138061 -118.210502 111 7004ft 165kts
11-May-20 09:43 34.124767 -118.166991 111 7015ft 165kts
11-May-20 09:45 34.106107 -118.106031 111 7004ft 166kts
11-May-20 09:45 34.092764 -118.062507 110 7005ft 166kts
11-May-20 09:47 34.074028 -118.001530 111 7001ft 166kts
11-May-20 09:47 34.060590 -117.957844 111 7004ft 165kts
11-May-20 09:48 34.044532 -117.905733 111 7001ft 166kts
11-May-20 09:49 34.028493 -117.853778 111 7014ft 165kts
11-May-20 09:50 34.012361 -117.801653 111 7007ft 166kts
11-May-20 09:51 33.996121 -117.749582 113 7008ft 165kts
11-May-20 09:52 33.977942 -117.698574 114 7015ft 165kts
11-May-20 09:53 33.959889 -117.647518 114 7010ft 166kts
11-May-20 09:54 33.941842 -117.596405 114 7008ft 165kts
11-May-20 09:55 33.923743 -117.545199 114 7002ft 166kts
11-May-20 09:56 33.891770 -117.507736 147 7006ft 168kts
11-May-20 09:57 33.852734 -117.474916 147 7003ft 169kts
11-May-20 09:58 33.814429 -117.442801 147 6998ft 165kts
11-May-20 09:59 33.777057 -117.411520 147 7002ft 162kts
11-May-20 10:00 33.739910 -117.380462 147 6994ft 162kts
11-May-20 10:01 33.702703 -117.349392 147 7000ft 162kts
11-May-20 10:02 33.665514 -117.318376 147 6999ft 163kts
11-May-20 10:03 33.627917 -117.287065 147 7003ft 171kts
11-May-20 10:04 33.588052 -117.253867 147 7000ft 171kts
11-May-20 10:05 33.549156 -117.221525 147 7000ft 169kts
11-May-20 10:06 33.510844 -117.189703 147 6997ft 163kts
11-May-20 10:07 33.473955 -117.161099 166 7009ft 152kts
11-May-20 10:08 33.433242 -117.152135 173 7005ft 147kts
11-May-20 10:09 33.392907 -117.143586 173 7009ft 146kts
11-May-20 10:10 33.352640 -117.135052 173 6998ft 147kts
11-May-20 10:11 33.312206 -117.126479 173 6998ft 147kts
11-May-20 10:12 33.271512 -117.117875 173 6888ft 154kts
11-May-20 10:13 33.227478 -117.109244 170 6353ft 164kts
11-May-20 10:14 33.224955 -117.060635 74 5770ft 169kts
11-May-20 10:15 33.212642 -117.010811 122 5326ft 163kts
11-May-20 10:16 33.179666 -117.009122 220 4797ft 148kts
11-May-20 10:17 33.164569 -117.053388 257 4055ft 144kts
11-May-20 10:18 33.157105 -117.098450 257 3461ft 124kts
11-May-20 10:19 33.151013 -117.136415 259 2782ft 111kts
11-May-20 10:20 33.145410 -117.171922 259 2154ft 108kts
11-May-20 10:21 33.140039 -117.206958 259 1576ft 104kts
11-May-20 10:22 33.134605 -117.240299 259 966ft 101kts
11-May-20 10:23 33.130315 -117.267245 258 459ft 73kts
11-May-20 10:24 33.127942 -117.280105 221 334ft 4kts
11-May-20 10:25 33.127214 -117.280178 78 334ft 15kts
11-May-20 10:26 33.126771 -117.278900 76 334ft 0kts

Navigation Log

Ident Type
Flight plan parsing failed, navigation log unavailable